Time;durP1;ratioP1;P1;durP2;ratioP2;P2;SDS_P1;SDS_P2;PMS_P1;PMS_P2;Temp;Humidity;BMP_temperature;BMP_pressure;BME280_temperature;BME280_humidity;BME280_pressure;Samples;Min_cycle;Max_cycle;Signal;HPM_P1;HPM_P2
2021/12/14 00:01:43;;;;;;;;;;;3.30;82.30;;;;;;5088213;27;83824;-41
2021/12/14 00:04:10;;;;;;;;;;;3.20;82.50;;;;;;5087432;27;84208;-41
2021/12/14 00:06:36;;;;;;;;;;;3.30;82.60;;;;;;5087866;27;81965;-41
2021/12/14 00:09:04;;;;;;;;;;;3.20;82.30;;;;;;5089366;27;84240;-40
2021/12/14 00:16:36;;;;;;;;;;;3.20;83.10;;;;;;5087248;27;83273;-41
2021/12/14 00:19:02;;;;;;;;;;;3.10;82.90;;;;;;5087405;27;82154;-41
2021/12/14 00:21:30;;;;;;;;;;;3.20;83.00;;;;;;5091276;27;82424;-40
2021/12/14 00:24:09;;;;;;;;;;;3.10;83.20;;;;;;5090672;27;84360;-39
2021/12/14 00:26:50;;;;;;;;;;;3.10;82.80;;;;;;5091729;27;81186;-40
2021/12/14 00:29:22;;;;;;;;;;;3.10;82.70;;;;;;5090965;27;81885;-40
2021/12/14 00:31:48;;;;;;;;;;;3.10;82.80;;;;;;5093920;27;82923;-39
2021/12/14 00:34:22;;;;;;;;;;;3.10;83.00;;;;;;5090394;27;84031;-39
2021/12/14 00:36:48;;;;;;;;;;;3.10;83.10;;;;;;5090912;27;84960;-40
2021/12/14 00:39:14;;;;;;;;;;;3.10;82.90;;;;;;5090552;27;82064;-40
2021/12/14 00:41:40;;;;;;;;;;;3.10;83.10;;;;;;5090430;27;84305;-41
2021/12/14 00:44:06;;;;;;;;;;;3.00;83.10;;;;;;5090491;27;83594;-41
2021/12/14 00:46:35;;;;;;;;;;;3.00;83.10;;;;;;5090692;27;82120;-41
2021/12/14 00:49:00;;;;;;;;;;;3.00;83.40;;;;;;5090512;27;84154;-39
2021/12/14 00:51:28;;;;;;;;;;;3.00;83.00;;;;;;5093716;27;84169;-40
2021/12/14 00:53:55;;;;;;;;;;;3.00;83.20;;;;;;5090737;27;83308;-39
2021/12/14 00:56:20;;;;;;;;;;;3.00;83.60;;;;;;5090162;27;83786;-41
2021/12/14 00:58:46;;;;;;;;;;;3.00;83.40;;;;;;5089457;27;83063;-41
2021/12/14 01:01:17;;;;;;;;;;;3.00;83.30;;;;;;5090319;27;84785;-41
2021/12/14 01:03:45;;;;;;;;;;;3.00;83.30;;;;;;5071791;27;87852;-42
2021/12/14 01:06:11;;;;;;;;;;;3.00;83.40;;;;;;5090330;27;82096;-40
2021/12/14 01:08:39;;;;;;;;;;;2.90;83.10;;;;;;5090326;27;84046;-41
2021/12/14 01:11:28;;;;;;;;;;;2.90;83.30;;;;;;5090010;27;84293;-40
2021/12/14 01:14:00;;;;;;;;;;;2.90;83.30;;;;;;5074848;27;82001;-39
2021/12/14 01:16:35;;;;;;;;;;;2.90;83.20;;;;;;5090732;27;83789;-41
2021/12/14 01:19:13;;;;;;;;;;;2.90;83.00;;;;;;5090081;27;81862;-40
2021/12/14 01:22:01;;;;;;;;;;;2.90;83.10;;;;;;5090467;27;84173;-39
2021/12/14 01:24:59;;;;;;;;;;;2.90;83.20;;;;;;5088949;27;82780;-41
2021/12/14 01:27:23;;;;;;;;;;;2.90;83.20;;;;;;5090029;27;81815;-39
2021/12/14 01:29:52;;;;;;;;;;;2.90;83.40;;;;;;5089765;27;82981;-41
2021/12/14 01:32:18;;;;;;;;;;;2.90;83.30;;;;;;5089779;27;83850;-40
2021/12/14 01:34:44;;;;;;;;;;;2.80;83.30;;;;;;5090061;27;82033;-41
2021/12/14 01:37:15;;;;;;;;;;;2.90;83.30;;;;;;5092375;27;84122;-39
2021/12/14 01:40:19;;;;;;;;;;;2.90;83.40;;;;;;5089944;27;81809;-40
2021/12/14 01:42:38;;;;;;;;;;;2.90;83.20;;;;;;5087036;27;83281;-41
2021/12/14 01:45:09;;;;;;;;;;;2.90;83.50;;;;;;5089630;27;83186;-40
2021/12/14 01:47:55;;;;;;;;;;;2.80;83.30;;;;;;5089877;27;81713;-39
2021/12/14 01:50:29;;;;;;;;;;;2.80;83.20;;;;;;5089059;27;83905;-40
2021/12/14 01:52:56;;;;;;;;;;;2.80;83.40;;;;;;5089337;27;84388;-40
2021/12/14 01:55:24;;;;;;;;;;;2.80;83.30;;;;;;5089564;27;82029;-40
2021/12/14 01:57:49;;;;;;;;;;;2.80;83.40;;;;;;5089478;27;83134;-41
2021/12/14 02:00:22;;;;;;;;;;;2.80;83.40;;;;;;5092063;27;83596;-41
2021/12/14 02:02:48;;;;;;;;;;;2.80;83.30;;;;;;5089442;27;83805;-40
2021/12/14 02:05:32;;;;;;;;;;;2.70;83.60;;;;;;5088982;27;83638;-41
2021/12/14 02:07:59;;;;;;;;;;;2.80;83.40;;;;;;5089923;27;81151;-40
2021/12/14 02:10:33;;;;;;;;;;;2.80;83.30;;;;;;5089475;27;83392;-39
2021/12/14 02:12:59;;;;;;;;;;;2.80;83.40;;;;;;5088870;27;86670;-41
2021/12/14 02:15:28;;;;;;;;;;;2.80;83.60;;;;;;5088648;27;83044;-39
2021/12/14 02:17:54;;;;;;;;;;;2.70;83.30;;;;;;5089063;27;84995;-39
2021/12/14 02:20:22;;;;;;;;;;;2.70;83.30;;;;;;5089052;27;84962;-39
2021/12/14 02:22:47;;;;;;;;;;;2.70;83.30;;;;;;5092058;27;82108;-41
2021/12/14 02:25:13;;;;;;;;;;;2.70;83.30;;;;;;5088774;27;84277;-41
2021/12/14 02:27:40;;;;;;;;;;;2.70;83.40;;;;;;5089358;27;82097;-40
2021/12/14 02:30:08;;;;;;;;;;;2.70;83.40;;;;;;5089164;27;82944;-39
2021/12/14 02:32:33;;;;;;;;;;;2.70;83.30;;;;;;5089021;27;83599;-40
2021/12/14 02:35:00;;;;;;;;;;;2.70;83.20;;;;;;5088935;27;82154;-39
2021/12/14 02:37:35;;;;;;;;;;;2.70;83.20;;;;;;5088977;27;82197;-41
2021/12/14 02:40:14;;;;;;;;;;;2.70;83.10;;;;;;5087876;27;84805;-41
2021/12/14 02:42:40;;;;;;;;;;;2.70;83.20;;;;;;5087975;27;81935;-41
2021/12/14 02:45:05;;;;;;;;;;;2.70;83.30;;;;;;5091156;27;84024;-41
2021/12/14 02:47:31;;;;;;;;;;;2.70;83.00;;;;;;5088793;27;81852;-41
2021/12/14 02:49:56;;;;;;;;;;;2.60;83.10;;;;;;5088657;27;83744;-41
2021/12/14 02:52:32;;;;;;;;;;;2.70;83.10;;;;;;5088834;27;82529;-41
2021/12/14 02:55:00;;;;;;;;;;;2.70;83.10;;;;;;5088694;27;81907;-39
2021/12/14 02:57:27;;;;;;;;;;;2.70;83.10;;;;;;5088914;27;82945;-40
2021/12/14 02:59:54;;;;;;;;;;;2.60;83.30;;;;;;5087999;27;86615;-41
2021/12/14 03:02:24;;;;;;;;;;;2.60;83.10;;;;;;5088770;27;82099;-40
2021/12/14 03:04:52;;;;;;;;;;;2.60;83.20;;;;;;5090487;27;84002;-41
2021/12/14 03:07:21;;;;;;;;;;;2.60;83.10;;;;;;5070174;27;82098;-40
2021/12/14 03:12:19;;;;;;;;;;;2.60;83.20;;;;;;5088286;27;83259;-41
2021/12/14 03:14:57;;;;;;;;;;;2.60;83.20;;;;;;5088166;27;82034;-41
2021/12/14 03:17:23;;;;;;;;;;;2.50;83.20;;;;;;5088503;27;83774;-41
2021/12/14 03:19:56;;;;;;;;;;;2.50;83.30;;;;;;5087878;27;84634;-41
2021/12/14 03:22:24;;;;;;;;;;;2.50;83.40;;;;;;5088719;27;81301;-39
2021/12/14 03:24:50;;;;;;;;;;;2.50;83.40;;;;;;5088109;27;83094;-39
2021/12/14 03:27:16;;;;;;;;;;;2.50;83.60;;;;;;5090822;27;84325;-42
2021/12/14 03:29:41;;;;;;;;;;;2.50;83.70;;;;;;5087455;27;83938;-39
2021/12/14 03:32:07;;;;;;;;;;;2.50;83.70;;;;;;5087902;27;84912;-41
2021/12/14 03:34:34;;;;;;;;;;;2.50;83.60;;;;;;5088079;27;82064;-40
2021/12/14 03:37:11;;;;;;;;;;;2.40;83.70;;;;;;5088005;27;82902;-41
2021/12/14 03:39:38;;;;;;;;;;;2.50;83.60;;;;;;5087863;27;84854;-40
2021/12/14 03:42:08;;;;;;;;;;;2.50;83.40;;;;;;5088179;27;82032;-41
2021/12/14 03:44:35;;;;;;;;;;;2.40;83.50;;;;;;5087830;27;82238;-39
2021/12/14 03:47:04;;;;;;;;;;;2.40;83.60;;;;;;5088139;27;82988;-41
2021/12/14 03:49:33;;;;;;;;;;;2.40;83.70;;;;;;5090507;27;82095;-40
2021/12/14 03:51:58;;;;;;;;;;;2.40;83.60;;;;;;5087438;27;83491;-40
2021/12/14 03:54:24;;;;;;;;;;;2.40;83.50;;;;;;5086853;27;83017;-40
2021/12/14 03:56:50;;;;;;;;;;;2.50;83.80;;;;;;5087741;27;85109;-41
2021/12/14 03:59:16;;;;;;;;;;;2.40;83.40;;;;;;5086607;27;84394;-41
2021/12/14 04:01:43;;;;;;;;;;;2.40;83.50;;;;;;5087553;27;81866;-41
2021/12/14 04:04:14;;;;;;;;;;;2.40;83.60;;;;;;5087517;27;84247;-41
2021/12/14 04:06:40;;;;;;;;;;;2.40;84.00;;;;;;5087454;27;84356;-41
2021/12/14 04:09:07;;;;;;;;;;;2.40;83.90;;;;;;5087473;27;81950;-40
2021/12/14 04:11:33;;;;;;;;;;;2.40;83.80;;;;;;5090628;27;83813;-39
2021/12/14 04:13:58;;;;;;;;;;;2.40;83.70;;;;;;5087577;27;82085;-40
2021/12/14 04:16:24;;;;;;;;;;;2.40;83.80;;;;;;5087689;27;84275;-39
2021/12/14 04:18:50;;;;;;;;;;;2.30;83.80;;;;;;5086561;27;84135;-39
2021/12/14 04:21:16;;;;;;;;;;;2.30;83.80;;;;;;5087073;27;82104;-41
2021/12/14 04:23:44;;;;;;;;;;;2.30;83.60;;;;;;5087282;27;83850;-41
2021/12/14 04:26:11;;;;;;;;;;;2.30;83.70;;;;;;5087042;27;84791;-40
2021/12/14 04:28:41;;;;;;;;;;;2.40;83.70;;;;;;5087177;27;82049;-41
2021/12/14 04:31:07;;;;;;;;;;;2.30;83.60;;;;;;5087244;27;84400;-41
2021/12/14 04:33:34;;;;;;;;;;;2.30;83.70;;;;;;5089724;27;84374;-42
2021/12/14 04:36:03;;;;;;;;;;;2.30;83.60;;;;;;5087791;27;84046;-40
2021/12/14 04:38:31;;;;;;;;;;;2.30;83.50;;;;;;5086889;27;84475;-41
2021/12/14 04:52:04;;;;;;;;;;;2.30;83.80;;;;;;5086419;27;81930;-41
2021/12/14 04:54:30;;;;;;;;;;;2.30;83.80;;;;;;5086616;27;85684;-39
2021/12/14 04:56:56;;;;;;;;;;;2.20;83.80;;;;;;5089602;27;81913;-40
2021/12/14 04:59:23;;;;;;;;;;;2.20;83.90;;;;;;5086338;27;84344;-39
2021/12/14 05:01:50;;;;;;;;;;;2.20;83.90;;;;;;5087576;27;81317;-41
2021/12/14 05:04:18;;;;;;;;;;;2.20;84.00;;;;;;5086983;27;81730;-41
2021/12/14 05:06:54;;;;;;;;;;;2.20;84.00;;;;;;5089195;27;84508;-41
2021/12/14 05:09:27;;;;;;;;;;;2.20;84.00;;;;;;5089477;27;82793;-40
2021/12/14 05:11:52;;;;;;;;;;;2.20;84.00;;;;;;5090421;27;85180;-40
2021/12/14 05:14:19;;;;;;;;;;;2.20;84.00;;;;;;5090256;27;82593;-40
2021/12/14 05:16:44;;;;;;;;;;;2.20;84.00;;;;;;5092929;27;81945;-41
2021/12/14 05:19:11;;;;;;;;;;;2.20;84.00;;;;;;5089920;27;84433;-39
2021/12/14 05:21:40;;;;;;;;;;;2.20;84.10;;;;;;5090247;27;82094;-40
2021/12/14 05:24:07;;;;;;;;;;;2.20;84.00;;;;;;5090301;27;83740;-41
2021/12/14 05:26:33;;;;;;;;;;;2.20;84.00;;;;;;5090325;27;83709;-41
2021/12/14 05:28:59;;;;;;;;;;;2.20;83.90;;;;;;5089877;27;81985;-41
2021/12/14 05:31:24;;;;;;;;;;;2.20;84.00;;;;;;5090101;27;83248;-40
2021/12/14 05:33:50;;;;;;;;;;;2.20;84.00;;;;;;5089038;27;85658;-40
2021/12/14 05:36:17;;;;;;;;;;;2.20;84.10;;;;;;5089782;27;82049;-41
2021/12/14 05:44:02;;;;;;;;;;;2.20;84.10;;;;;;5090171;27;81798;-40
2021/12/14 05:46:27;;;;;;;;;;;2.20;84.00;;;;;;5089712;27;84478;-41
2021/12/14 05:48:58;;;;;;;;;;;2.10;83.90;;;;;;5089578;27;82239;-41
2021/12/14 05:51:24;;;;;;;;;;;2.10;84.00;;;;;;5090194;27;82996;-41
2021/12/14 05:53:49;;;;;;;;;;;2.10;83.90;;;;;;5089675;27;82876;-40
2021/12/14 05:56:18;;;;;;;;;;;2.20;83.90;;;;;;5089684;27;82075;-41
2021/12/14 05:58:44;;;;;;;;;;;2.10;83.70;;;;;;5088672;27;83983;-41
2021/12/14 06:01:11;;;;;;;;;;;2.10;83.80;;;;;;5092111;27;84532;-39
2021/12/14 06:03:41;;;;;;;;;;;2.10;84.00;;;;;;5089264;27;83920;-40
2021/12/14 06:06:19;;;;;;;;;;;2.10;84.00;;;;;;5089075;27;84830;-41
2021/12/14 06:08:45;;;;;;;;;;;2.10;83.90;;;;;;5089370;27;82030;-41
2021/12/14 06:11:21;;;;;;;;;;;2.00;84.10;;;;;;5089439;27;83075;-40
2021/12/14 06:13:47;;;;;;;;;;;2.10;84.20;;;;;;5089142;27;84688;-42
2021/12/14 06:16:31;;;;;;;;;;;2.00;84.30;;;;;;5071330;27;81145;-41
2021/12/14 06:19:14;;;;;;;;;;;2.10;84.20;;;;;;5089426;27;83524;-41
2021/12/14 06:21:40;;;;;;;;;;;2.10;84.20;;;;;;5089336;27;83169;-41
2021/12/14 06:24:06;;;;;;;;;;;2.10;84.40;;;;;;5091218;27;82681;-40
2021/12/14 06:26:37;;;;;;;;;;;2.10;84.40;;;;;;5088969;27;83703;-40
2021/12/14 06:29:12;;;;;;;;;;;2.10;84.40;;;;;;5088995;27;82149;-40
2021/12/14 06:31:40;;;;;;;;;;;2.00;84.20;;;;;;5089059;27;83477;-40
2021/12/14 06:34:20;;;;;;;;;;;2.10;84.30;;;;;;5088961;27;84510;-40
2021/12/14 06:36:48;;;;;;;;;;;2.10;84.30;;;;;;5088954;27;82113;-41
2021/12/14 06:39:14;;;;;;;;;;;2.00;84.20;;;;;;5088572;27;83869;-40
2021/12/14 06:41:39;;;;;;;;;;;2.00;84.20;;;;;;5089344;27;83568;-41
2021/12/14 06:44:05;;;;;;;;;;;2.00;84.20;;;;;;5088703;27;82026;-40
2021/12/14 06:46:38;;;;;;;;;;;2.00;84.30;;;;;;5091507;27;83695;-41
2021/12/14 06:49:09;;;;;;;;;;;2.00;84.20;;;;;;5069871;27;82971;-41
2021/12/14 06:51:36;;;;;;;;;;;2.00;84.20;;;;;;5088870;27;83605;-39
2021/12/14 06:54:05;;;;;;;;;;;2.00;84.30;;;;;;5088360;27;84606;-39
2021/12/14 06:56:31;;;;;;;;;;;2.00;84.30;;;;;;5088550;27;82054;-41
2021/12/14 06:58:59;;;;;;;;;;;2.00;84.20;;;;;;5088334;27;84147;-40
2021/12/14 07:01:35;;;;;;;;;;;2.00;84.10;;;;;;5088372;27;84429;-41
2021/12/14 07:04:03;;;;;;;;;;;2.00;84.20;;;;;;5088507;27;82069;-40
2021/12/14 07:06:31;;;;;;;;;;;2.00;84.30;;;;;;5091369;27;84089;-41
2021/12/14 07:09:07;;;;;;;;;;;2.00;84.40;;;;;;5088355;27;82208;-40
2021/12/14 07:11:32;;;;;;;;;;;2.00;84.50;;;;;;5070303;27;83459;-41
2021/12/14 07:13:58;;;;;;;;;;;2.00;84.40;;;;;;5069208;27;86804;-41
2021/12/14 07:16:30;;;;;;;;;;;2.00;84.40;;;;;;5088255;27;82078;-40
2021/12/14 07:18:57;;;;;;;;;;;2.00;84.20;;;;;;5088054;27;83781;-40
2021/12/14 07:21:36;;;;;;;;;;;2.00;84.20;;;;;;5088014;27;84577;-39
2021/12/14 07:24:28;;;;;;;;;;;2.00;84.30;;;;;;5088314;27;81993;-39
2021/12/14 07:27:12;;;;;;;;;;;2.00;84.20;;;;;;5082776;27;84370;-41
2021/12/14 07:29:37;;;;;;;;;;;2.00;84.20;;;;;;5090011;27;84498;-40
2021/12/14 07:32:03;;;;;;;;;;;2.00;84.30;;;;;;5088500;27;83972;-39
2021/12/14 07:34:29;;;;;;;;;;;2.00;84.50;;;;;;5087953;27;84277;-40
2021/12/14 07:36:55;;;;;;;;;;;2.00;84.50;;;;;;5087958;27;82043;-41
2021/12/14 07:39:21;;;;;;;;;;;2.00;84.40;;;;;;5087398;27;84373;-41
2021/12/14 07:41:48;;;;;;;;;;;1.90;84.40;;;;;;5087712;27;84658;-39
2021/12/14 07:44:14;;;;;;;;;;;1.90;84.50;;;;;;5087774;27;82269;-39
2021/12/14 07:46:45;;;;;;;;;;;1.90;84.50;;;;;;5087842;27;83920;-41
2021/12/14 07:49:43;;;;;;;;;;;1.90;84.40;;;;;;5087879;27;84502;-39
2021/12/14 07:52:08;;;;;;;;;;;1.90;84.40;;;;;;5033125;27;82125;-39
2021/12/14 07:54:46;;;;;;;;;;;1.90;84.50;;;;;;5087256;27;84712;-39
2021/12/14 07:57:18;;;;;;;;;;;1.90;84.50;;;;;;5088096;27;81363;-41
2021/12/14 07:59:48;;;;;;;;;;;1.90;84.60;;;;;;5087267;27;82351;-39
2021/12/14 08:02:16;;;;;;;;;;;1.90;84.50;;;;;;5087670;27;84822;-41
2021/12/14 08:04:47;;;;;;;;;;;1.90;84.50;;;;;;5087019;27;82792;-42
2021/12/14 08:07:30;;;;;;;;;;;1.90;84.50;;;;;;5087569;27;84399;-39
2021/12/14 08:10:07;;;;;;;;;;;1.90;84.60;;;;;;5087427;27;84312;-40
2021/12/14 08:12:44;;;;;;;;;;;1.90;84.70;;;;;;5087755;27;81839;-39
2021/12/14 08:15:10;;;;;;;;;;;1.90;84.60;;;;;;5090295;27;83824;-39
2021/12/14 08:17:36;;;;;;;;;;;1.90;84.40;;;;;;5087306;27;81852;-39
2021/12/14 08:20:05;;;;;;;;;;;1.90;84.50;;;;;;5087686;27;81898;-40
2021/12/14 08:22:32;;;;;;;;;;;1.90;84.60;;;;;;5087672;27;82705;-39
2021/12/14 08:24:57;;;;;;;;;;;1.90;84.70;;;;;;5087404;27;82077;-39
2021/12/14 08:27:24;;;;;;;;;;;1.90;84.50;;;;;;5087420;27;84303;-41
2021/12/14 08:30:01;;;;;;;;;;;1.90;84.60;;;;;;5086323;27;85419;-39
2021/12/14 08:32:29;;;;;;;;;;;1.90;84.60;;;;;;5087313;27;81947;-38
2021/12/14 08:34:56;;;;;;;;;;;1.90;84.60;;;;;;5087308;27;83978;-39
2021/12/14 08:37:34;;;;;;;;;;;1.90;84.60;;;;;;5089961;27;84389;-39
2021/12/14 08:40:04;;;;;;;;;;;1.90;84.40;;;;;;5087243;27;83139;-41
2021/12/14 08:42:39;;;;;;;;;;;1.90;84.50;;;;;;5090602;27;83860;-41
2021/12/14 08:45:24;;;;;;;;;;;1.90;84.50;;;;;;5090732;27;81918;-38
2021/12/14 08:47:51;;;;;;;;;;;1.90;84.50;;;;;;5091521;27;84215;-40
2021/12/14 08:50:17;;;;;;;;;;;1.90;84.40;;;;;;5090448;27;83910;-39
2021/12/14 08:52:43;;;;;;;;;;;1.90;84.60;;;;;;5090760;27;81859;-41
2021/12/14 08:55:11;;;;;;;;;;;1.90;84.40;;;;;;5089763;27;83691;-40
2021/12/14 08:57:38;;;;;;;;;;;1.80;84.60;;;;;;5090503;27;85186;-39
2021/12/14 09:00:12;;;;;;;;;;;1.90;84.60;;;;;;5093013;27;81709;-41
2021/12/14 09:02:38;;;;;;;;;;;1.80;84.60;;;;;;5090539;27;83455;-40
2021/12/14 09:05:15;;;;;;;;;;;1.80;84.70;;;;;;5090686;27;81799;-39
2021/12/14 09:07:42;;;;;;;;;;;1.90;84.60;;;;;;5090310;27;83967;-41
2021/12/14 09:10:10;;;;;;;;;;;1.90;84.80;;;;;;5090110;27;83354;-39
2021/12/14 09:12:39;;;;;;;;;;;1.90;84.60;;;;;;5090884;27;80934;-39
2021/12/14 09:15:07;;;;;;;;;;;1.90;84.60;;;;;;5090410;27;82203;-39
2021/12/14 09:17:33;;;;;;;;;;;1.90;84.60;;;;;;5089990;27;84711;-40
2021/12/14 09:20:06;;;;;;;;;;;1.80;84.70;;;;;;5092245;27;82898;-38
2021/12/14 09:22:35;;;;;;;;;;;1.80;84.70;;;;;;5090105;27;84563;-41
2021/12/14 09:25:03;;;;;;;;;;;1.80;84.70;;;;;;5090045;27;82031;-38
2021/12/14 09:27:32;;;;;;;;;;;1.80;84.80;;;;;;5089883;27;84285;-40
2021/12/14 09:29:58;;;;;;;;;;;1.80;84.70;;;;;;5089747;27;84494;-40
2021/12/14 09:32:27;;;;;;;;;;;1.80;84.70;;;;;;5089859;27;82751;-39
2021/12/14 09:34:54;;;;;;;;;;;1.90;84.80;;;;;;5089700;27;83780;-41
2021/12/14 09:37:21;;;;;;;;;;;1.80;84.80;;;;;;5090351;27;83795;-40
2021/12/14 09:39:49;;;;;;;;;;;1.80;84.60;;;;;;5089741;27;82097;-39
2021/12/14 09:42:16;;;;;;;;;;;1.90;84.80;;;;;;5092437;27;83713;-41
2021/12/14 09:44:43;;;;;;;;;;;1.90;84.70;;;;;;5089077;27;83048;-39
2021/12/14 09:47:12;;;;;;;;;;;1.80;84.70;;;;;;5089761;27;84857;-39
2021/12/14 09:49:39;;;;;;;;;;;1.90;84.70;;;;;;5089625;27;85255;-41
2021/12/14 09:52:13;;;;;;;;;;;1.80;84.60;;;;;;5089466;27;81725;-39
2021/12/14 09:54:39;;;;;;;;;;;1.90;84.70;;;;;;5089810;27;85039;-40
2021/12/14 09:57:07;;;;;;;;;;;1.90;85.00;;;;;;5089553;27;84417;-39
2021/12/14 09:59:34;;;;;;;;;;;1.90;84.90;;;;;;5089108;27;82112;-41
2021/12/14 10:02:03;;;;;;;;;;;1.90;84.90;;;;;;5090067;27;83836;-41
2021/12/14 10:04:34;;;;;;;;;;;1.90;84.80;;;;;;5091963;27;84776;-39
2021/12/14 10:07:03;;;;;;;;;;;1.90;84.80;;;;;;5089584;27;83577;-40
2021/12/14 10:09:31;;;;;;;;;;;1.90;84.70;;;;;;5088520;27;85101;-41
2021/12/14 10:12:16;;;;;;;;;;;1.90;84.70;;;;;;5089386;27;81911;-41
2021/12/14 10:14:42;;;;;;;;;;;1.90;84.60;;;;;;5089227;27;84377;-41
2021/12/14 10:17:09;;;;;;;;;;;1.90;84.80;;;;;;5089225;27;84577;-41
2021/12/14 10:19:35;;;;;;;;;;;1.90;84.80;;;;;;5088979;27;82199;-41
2021/12/14 10:22:12;;;;;;;;;;;1.90;84.80;;;;;;5089254;27;83004;-40
2021/12/14 10:24:38;;;;;;;;;;;1.90;84.70;;;;;;5089188;27;83046;-40
2021/12/14 10:27:07;;;;;;;;;;;1.90;84.60;;;;;;5092068;27;81272;-40
2021/12/14 10:29:33;;;;;;;;;;;1.90;84.80;;;;;;5089001;27;83775;-41
2021/12/14 10:32:03;;;;;;;;;;;1.90;84.70;;;;;;5089228;27;82089;-41
2021/12/14 10:34:32;;;;;;;;;;;1.90;84.80;;;;;;5088531;27;83903;-41
2021/12/14 10:37:12;;;;;;;;;;;1.90;84.80;;;;;;5088771;27;84393;-41
2021/12/14 10:42:41;;;;;;;;;;;1.90;84.80;;;;;;5088616;27;81937;-41
2021/12/14 10:43:04;;;;;;;;;;;1.90;84.70;;;;;;5088761;27;81935;-39
2021/12/14 10:45:28;;;;;;;;;;;1.90;84.90;;;;;;5088144;27;82763;-41
2021/12/14 10:47:54;;;;;;;;;;;1.90;84.80;;;;;;5088670;27;82075;-40
2021/12/14 10:50:22;;;;;;;;;;;1.90;85.20;;;;;;5091429;27;83082;-41
2021/12/14 10:52:48;;;;;;;;;;;1.90;85.00;;;;;;5089316;27;81257;-42
2021/12/14 10:55:16;;;;;;;;;;;1.90;84.90;;;;;;5088812;27;83407;-39
2021/12/14 10:57:42;;;;;;;;;;;1.90;84.80;;;;;;5088526;27;84740;-41
2021/12/14 11:00:16;;;;;;;;;;;1.90;84.80;;;;;;5087689;27;83124;-42
2021/12/14 11:02:42;;;;;;;;;;;1.90;85.10;;;;;;5087982;27;84646;-40
2021/12/14 11:05:15;;;;;;;;;;;1.90;85.10;;;;;;5087987;27;84552;-41
2021/12/14 11:07:43;;;;;;;;;;;1.90;85.10;;;;;;5088879;27;81861;-40
2021/12/14 11:10:17;;;;;;;;;;;1.90;84.90;;;;;;5088541;27;83843;-42
2021/12/14 11:12:44;;;;;;;;;;;1.90;85.10;;;;;;5091059;27;84754;-42
2021/12/14 11:15:19;;;;;;;;;;;1.80;84.90;;;;;;5088127;27;83771;-40
2021/12/14 11:20:33;;;;;;;;;;;1.90;85.20;;;;;;5086963;27;81951;-40
2021/12/14 11:23:10;;;;;;;;;;;1.80;85.10;;;;;;5088311;27;82907;-42
2021/12/14 11:25:51;;;;;;;;;;;1.90;85.20;;;;;;5087271;27;85670;-43
2021/12/14 11:28:29;;;;;;;;;;;1.80;85.10;;;;;;5088089;27;82249;-38
2021/12/14 11:30:54;;;;;;;;;;;1.80;85.10;;;;;;5088210;27;83880;-43
2021/12/14 11:33:22;;;;;;;;;;;1.80;85.00;;;;;;5090637;27;83529;-41
2021/12/14 11:35:54;;;;;;;;;;;1.80;85.20;;;;;;5087926;27;83853;-41
2021/12/14 11:38:38;;;;;;;;;;;1.90;85.20;;;;;;5069479;27;83536;-40
2021/12/14 11:41:24;;;;;;;;;;;1.80;85.00;;;;;;5087894;27;82212;-40
2021/12/14 11:43:51;;;;;;;;;;;1.80;85.80;;;;;;5087474;27;83944;-40
2021/12/14 11:46:17;;;;;;;;;;;1.90;85.30;;;;;;5087820;27;84441;-41
2021/12/14 11:48:42;;;;;;;;;;;1.80;85.30;;;;;;5087581;27;82156;-43
2021/12/14 11:51:08;;;;;;;;;;;1.80;85.00;;;;;;5087311;27;83769;-40
2021/12/14 11:53:34;;;;;;;;;;;1.90;85.10;;;;;;5087518;27;84743;-43
2021/12/14 11:56:03;;;;;;;;;;;1.80;85.10;;;;;;5090517;27;81868;-43
2021/12/14 11:58:36;;;;;;;;;;;1.80;85.30;;;;;;5086860;27;84618;-42
2021/12/14 12:01:20;;;;;;;;;;;1.80;85.20;;;;;;5087575;27;82048;-43
2021/12/14 12:03:48;;;;;;;;;;;1.80;85.20;;;;;;5087683;27;83571;-41
2021/12/14 12:06:33;;;;;;;;;;;1.80;85.30;;;;;;5087744;27;84801;-43
2021/12/14 12:11:48;;;;;;;;;;;1.80;85.30;;;;;;5087661;27;81931;-43
2021/12/14 12:14:16;;;;;;;;;;;1.80;85.30;;;;;;5087674;27;83334;-41
2021/12/14 12:16:42;;;;;;;;;;;1.80;85.20;;;;;;5090893;27;82877;-41
2021/12/14 12:19:23;;;;;;;;;;;1.80;85.50;;;;;;5093619;27;85162;-43
2021/12/14 12:21:50;;;;;;;;;;;1.80;85.50;;;;;;5072720;27;82180;-42
2021/12/14 12:24:45;;;;;;;;;;;1.80;85.40;;;;;;5091073;27;84311;-41
2021/12/14 12:27:29;;;;;;;;;;;1.80;85.50;;;;;;5068140;27;84342;-41
2021/12/14 12:30:12;;;;;;;;;;;1.80;85.50;;;;;;5090909;27;82105;-42
2021/12/14 12:32:38;;;;;;;;;;;1.80;85.50;;;;;;5090847;27;82978;-42
2021/12/14 12:35:19;;;;;;;;;;;1.80;85.60;;;;;;5091274;27;84037;-41
2021/12/14 12:37:45;;;;;;;;;;;1.80;85.50;;;;;;5091170;27;81908;-41
2021/12/14 12:40:13;;;;;;;;;;;1.80;85.50;;;;;;5091048;27;82152;-43
2021/12/14 12:42:39;;;;;;;;;;;1.80;85.60;;;;;;5092978;27;84064;-40
2021/12/14 12:45:22;;;;;;;;;;;1.80;85.50;;;;;;5090389;27;84752;-41
2021/12/14 12:47:48;;;;;;;;;;;1.80;85.50;;;;;;5090574;27;84544;-41
2021/12/14 12:50:13;;;;;;;;;;;1.80;85.60;;;;;;5090732;27;82015;-43
2021/12/14 12:52:39;;;;;;;;;;;1.80;85.40;;;;;;5090714;27;84063;-41
2021/12/14 12:55:09;;;;;;;;;;;1.80;85.60;;;;;;5090482;27;84629;-41
2021/12/14 12:57:39;;;;;;;;;;;1.80;85.40;;;;;;5090406;27;82031;-43
2021/12/14 13:00:09;;;;;;;;;;;1.80;85.70;;;;;;5090452;27;84161;-42
2021/12/14 13:02:34;;;;;;;;;;;1.80;85.50;;;;;;5090551;27;82021;-42
2021/12/14 13:05:08;;;;;;;;;;;1.80;85.60;;;;;;5093206;27;82110;-42
2021/12/14 13:07:39;;;;;;;;;;;1.80;85.50;;;;;;5089927;27;83834;-43
2021/12/14 13:10:24;;;;;;;;;;;1.80;85.40;;;;;;5090106;27;82082;-41
2021/12/14 13:12:49;;;;;;;;;;;1.80;86.00;;;;;;5090358;27;84202;-42
2021/12/14 13:15:33;;;;;;;;;;;1.80;85.50;;;;;;5090472;27;82984;-40
2021/12/14 13:18:19;;;;;;;;;;;1.80;85.60;;;;;;5090495;27;82081;-42
2021/12/14 13:20:45;;;;;;;;;;;1.80;85.60;;;;;;5089965;27;83078;-41
2021/12/14 13:23:11;;;;;;;;;;;1.80;85.50;;;;;;5090154;27;83069;-40
2021/12/14 13:25:38;;;;;;;;;;;1.80;85.50;;;;;;5090409;27;81277;-42
2021/12/14 13:28:04;;;;;;;;;;;1.80;85.50;;;;;;5092225;27;83504;-40
2021/12/14 13:30:30;;;;;;;;;;;1.70;85.60;;;;;;5090047;27;82076;-41
2021/12/14 13:32:55;;;;;;;;;;;1.80;85.70;;;;;;5089351;27;83893;-40
2021/12/14 13:35:22;;;;;;;;;;;1.80;85.50;;;;;;5089671;27;84310;-42
2021/12/14 13:37:57;;;;;;;;;;;1.70;85.70;;;;;;5089751;27;82060;-40
2021/12/14 13:40:29;;;;;;;;;;;1.70;85.70;;;;;;5089671;27;83925;-42
2021/12/14 13:43:10;;;;;;;;;;;1.70;85.80;;;;;;5089552;27;84616;-43
2021/12/14 13:45:38;;;;;;;;;;;1.70;85.60;;;;;;5089725;27;82032;-42
2021/12/14 13:48:05;;;;;;;;;;;1.70;85.70;;;;;;5092510;27;81824;-40
2021/12/14 13:50:35;;;;;;;;;;;1.80;85.70;;;;;;5090189;27;81341;-40
2021/12/14 13:53:01;;;;;;;;;;;1.70;85.50;;;;;;5089772;27;83733;-40
2021/12/14 13:55:29;;;;;;;;;;;1.70;85.70;;;;;;5089353;27;84279;-40
2021/12/14 13:57:58;;;;;;;;;;;1.70;85.60;;;;;;5088360;27;83068;-41
2021/12/14 14:00:32;;;;;;;;;;;1.70;85.70;;;;;;5089418;27;85048;-41
2021/12/14 14:02:58;;;;;;;;;;;1.70;85.60;;;;;;5089607;27;84565;-40
2021/12/14 14:05:24;;;;;;;;;;;1.70;85.80;;;;;;5089523;27;82135;-41
2021/12/14 14:07:51;;;;;;;;;;;1.70;85.70;;;;;;5089530;27;83794;-42
2021/12/14 14:10:17;;;;;;;;;;;1.70;85.70;;;;;;5092117;27;84878;-41
2021/12/14 14:12:46;;;;;;;;;;;1.70;85.70;;;;;;5089402;27;83818;-41
2021/12/14 14:15:23;;;;;;;;;;;1.70;85.70;;;;;;5089677;27;83927;-42
2021/12/14 14:17:50;;;;;;;;;;;1.70;85.60;;;;;;5089371;27;81899;-41
2021/12/14 14:20:28;;;;;;;;;;;1.70;85.70;;;;;;5089230;27;82965;-43
2021/12/14 14:23:04;;;;;;;;;;;1.70;85.70;;;;;;5088474;27;85312;-42
2021/12/14 14:25:30;;;;;;;;;;;1.70;85.60;;;;;;5089120;27;81832;-42
2021/12/14 14:27:58;;;;;;;;;;;1.70;85.80;;;;;;5089134;27;83980;-42
2021/12/14 14:30:23;;;;;;;;;;;1.70;85.70;;;;;;5088757;27;84638;-42
2021/12/14 14:32:58;;;;;;;;;;;1.70;85.70;;;;;;5091773;27;82007;-42
2021/12/14 14:35:38;;;;;;;;;;;1.70;85.70;;;;;;5089202;27;82976;-42
2021/12/14 14:38:22;;;;;;;;;;;1.70;85.80;;;;;;5087639;27;82094;-42
2021/12/14 14:40:48;;;;;;;;;;;1.70;85.70;;;;;;5089481;27;83848;-42
2021/12/14 14:43:13;;;;;;;;;;;1.70;85.70;;;;;;5088474;27;86192;-42
2021/12/14 14:45:42;;;;;;;;;;;1.70;85.80;;;;;;5088880;27;82129;-42
2021/12/14 14:48:21;;;;;;;;;;;1.70;85.80;;;;;;5088099;27;84054;-43
2021/12/14 14:50:47;;;;;;;;;;;1.70;85.70;;;;;;5088782;27;84434;-41
2021/12/14 14:53:15;;;;;;;;;;;1.70;85.90;;;;;;5088916;27;82107;-42
2021/12/14 14:55:49;;;;;;;;;;;1.70;86.30;;;;;;5091404;27;83177;-42
2021/12/14 14:58:33;;;;;;;;;;;1.70;85.70;;;;;;5088350;27;82177;-42
2021/12/14 15:00:59;;;;;;;;;;;1.70;85.70;;;;;;5088506;27;81841;-40
2021/12/14 15:03:36;;;;;;;;;;;1.70;85.70;;;;;;5088343;27;85147;-43
2021/12/14 15:06:05;;;;;;;;;;;1.70;85.70;;;;;;5088896;27;81205;-42
2021/12/14 15:08:39;;;;;;;;;;;1.70;85.80;;;;;;5088610;27;83210;-40
2021/12/14 15:11:05;;;;;;;;;;;1.70;85.70;;;;;;5088223;27;83887;-41
2021/12/14 15:13:41;;;;;;;;;;;1.70;85.80;;;;;;5087424;27;82938;-42
2021/12/14 15:16:06;;;;;;;;;;;1.70;85.90;;;;;;5088251;27;85029;-41
2021/12/14 15:18:44;;;;;;;;;;;1.70;85.80;;;;;;5090772;27;84307;-42